Time;durP1;ratioP1;P1;durP2;ratioP2;P2;SDS_P1;SDS_P2;PMS_P1;PMS_P2;Temp;Humidity;BMP_temperature;BMP_pressure;BME280_temperature;BME280_humidity;BME280_pressure;Samples;Min_cycle;Max_cycle;Signal;HPM_P1;HPM_P2
2022/06/01 00:00:22;;;;;;;;;;;;;;;15.81;85.28;100428.72;10372488;28;19925;-63
2022/06/01 00:05:37;;;;;;;;;;;;;;;15.82;85.49;100453.16;10373435;28;19929;-67
2022/06/01 00:10:41;;;;;;;;;;;;;;;15.69;87.35;100447.41;10372880;28;19925;-65
2022/06/01 00:15:44;;;;;;;;;;;;;;;15.48;93.12;100429.72;10372753;28;19925;-69
2022/06/01 00:20:47;;;;;;;;;;;;;;;15.28;100.00;100444.22;10372888;28;19929;-68
2022/06/01 00:25:52;;;;;;;;;;;;;;;15.25;99.25;100445.19;10373384;28;19936;-68
2022/06/01 00:30:55;;;;;;;;;;;;;;;14.93;100.00;100429.50;10372240;28;19925;-67
2022/06/01 00:35:58;;;;;;;;;;;;;;;14.69;100.00;100409.22;10372242;28;19932;-67
2022/06/01 00:41:03;;;;;;;;;;;;;;;14.47;100.00;100408.06;10371921;28;20227;-70
2022/06/01 00:46:06;;;;;;;;;;;;;;;14.40;100.00;100383.88;10371991;28;19925;-65
2022/06/01 00:51:10;;;;;;;;;;;;;;;14.40;100.00;100409.13;10371659;28;19978;-67
2022/06/01 00:56:17;;;;;;;;;;;;;;;14.34;100.00;100420.56;10371558;28;20364;-67
2022/06/01 01:01:21;;;;;;;;;;;;;;;14.30;100.00;100450.28;10371440;28;19936;-66
2022/06/01 01:06:26;;;;;;;;;;;;;;;14.23;100.00;100466.94;10371626;28;19926;-68
2022/06/01 01:11:34;;;;;;;;;;;;;;;14.14;100.00;100451.47;10383566;28;20002;-66
2022/06/01 01:16:37;;;;;;;;;;;;;;;14.03;100.00;100392.59;10385247;28;19929;-68
2022/06/01 01:21:46;;;;;;;;;;;;;;;14.07;100.00;100369.00;10384670;28;20357;-68
2022/06/01 01:26:52;;;;;;;;;;;;;;;14.06;100.00;100374.25;10384434;28;19926;-65
2022/06/01 01:31:55;;;;;;;;;;;;;;;14.09;100.00;100389.84;10384300;28;19925;-68
2022/06/01 01:37:00;;;;;;;;;;;;;;;14.10;100.00;100402.00;10384280;28;19936;-68
2022/06/01 01:42:06;;;;;;;;;;;;;;;14.05;100.00;100380.38;10384070;28;19925;-67
2022/06/01 01:47:09;;;;;;;;;;;;;;;14.04;100.00;100370.81;10384790;28;19925;-67
2022/06/01 01:52:14;;;;;;;;;;;;;;;14.02;100.00;100372.59;10384022;28;19935;-66
2022/06/01 01:57:24;;;;;;;;;;;;;;;13.99;100.00;100367.47;10384404;28;19926;-66
2022/06/01 02:02:31;;;;;;;;;;;;;;;13.96;100.00;100362.31;10383835;28;19932;-66
2022/06/01 02:07:40;;;;;;;;;;;;;;;13.93;100.00;100360.63;10383568;28;19925;-64
2022/06/01 02:12:45;;;;;;;;;;;;;;;13.90;100.00;100353.75;10383417;28;19936;-66
2022/06/01 02:17:50;;;;;;;;;;;;;;;13.97;100.00;100358.81;10383195;28;20363;-65
2022/06/01 02:22:54;;;;;;;;;;;;;;;14.00;100.00;100356.13;10377195;28;19950;-67
2022/06/01 02:27:59;;;;;;;;;;;;;;;13.98;100.00;100353.56;10376472;28;20359;-67
2022/06/01 02:33:03;;;;;;;;;;;;;;;13.94;100.00;100350.16;10376317;28;19925;-69
2022/06/01 02:38:10;;;;;;;;;;;;;;;13.91;100.00;100339.78;10375852;28;19955;-67
2022/06/01 02:43:14;;;;;;;;;;;;;;;13.90;100.00;100329.41;10376289;28;20347;-67
2022/06/01 02:48:17;;;;;;;;;;;;;;;13.88;100.00;100329.44;10375797;28;19929;-66
2022/06/01 02:53:20;;;;;;;;;;;;;;;13.91;100.00;100325.88;10375473;28;20331;-66
2022/06/01 02:58:25;;;;;;;;;;;;;;;13.90;100.00;100317.22;10375064;28;19925;-62
2022/06/01 03:03:28;;;;;;;;;;;;;;;13.83;100.00;100315.66;10374146;28;20288;-61
2022/06/01 03:08:32;;;;;;;;;;;;;;;13.72;100.00;100312.44;10375077;28;19925;-65
2022/06/01 03:13:36;;;;;;;;;;;;;;;13.65;100.00;100304.81;10374952;28;19933;-63
2022/06/01 03:18:39;;;;;;;;;;;;;;;13.72;100.00;100295.91;10374461;28;19925;-68
2022/06/01 03:23:42;;;;;;;;;;;;;;;13.70;100.00;100293.34;10375112;28;19926;-65
2022/06/01 03:28:47;;;;;;;;;;;;;;;13.73;100.00;100295.91;10374251;28;20334;-62
2022/06/01 03:33:50;;;;;;;;;;;;;;;13.81;100.00;100293.97;10373050;28;19925;-63
2022/06/01 03:38:53;;;;;;;;;;;;;;;13.91;100.00;100287.63;10373885;28;19926;-64
2022/06/01 03:49:18;;;;;;;;;;;;;;;13.89;100.00;100281.56;10373743;28;19930;-68
2022/06/01 03:54:21;;;;;;;;;;;;;;;13.96;100.00;100284.88;10374193;28;20350;-68
2022/06/01 03:59:26;;;;;;;;;;;;;;;14.02;100.00;100309.97;10373744;28;19936;-70
2022/06/01 04:04:29;;;;;;;;;;;;;;;14.06;100.00;100306.41;10373371;28;19930;-70
2022/06/01 04:09:32;;;;;;;;;;;;;;;14.00;100.00;100298.72;10372994;28;20038;-67
2022/06/01 04:14:36;;;;;;;;;;;;;;;14.08;100.00;100305.44;10373196;28;19925;-66
2022/06/01 04:19:39;;;;;;;;;;;;;;;14.17;100.00;100300.00;10372547;28;19925;-66
2022/06/01 04:24:42;;;;;;;;;;;;;;;14.22;100.00;100292.06;10372957;28;19936;-67
2022/06/01 04:29:47;;;;;;;;;;;;;;;14.22;100.00;100284.25;10372346;28;19926;-67
2022/06/01 04:34:50;;;;;;;;;;;;;;;14.26;100.00;100285.88;10372699;28;19935;-69
2022/06/01 04:39:53;;;;;;;;;;;;;;;14.37;100.00;100278.63;10372055;28;19926;-66
2022/06/01 04:44:57;;;;;;;;;;;;;;;14.40;100.00;100284.63;10371869;28;19936;-70
2022/06/01 04:50:00;;;;;;;;;;;;;;;14.46;100.00;100276.63;10371783;28;19936;-65
2022/06/01 04:55:04;;;;;;;;;;;;;;;14.41;100.00;100277.66;10372030;28;19926;-64
2022/06/01 05:00:10;;;;;;;;;;;;;;;14.40;100.00;100282.03;10371392;28;19938;-63
2022/06/01 05:05:13;;;;;;;;;;;;;;;14.36;100.00;100292.56;10371734;28;19925;-64
2022/06/01 05:10:16;;;;;;;;;;;;;;;14.29;100.00;100286.66;10371348;28;19925;-63
2022/06/01 05:15:21;;;;;;;;;;;;;;;14.35;100.00;100294.34;10370917;28;19926;-63
2022/06/01 05:20:24;;;;;;;;;;;;;;;14.41;100.00;100288.94;10371266;28;20013;-63
2022/06/01 05:25:27;;;;;;;;;;;;;;;14.52;100.00;100291.28;10370950;28;20254;-66
2022/06/01 05:30:31;;;;;;;;;;;;;;;14.54;100.00;100279.91;10370530;28;19930;-62
2022/06/01 05:35:34;;;;;;;;;;;;;;;14.58;100.00;100265.84;10370379;28;20426;-65
2022/06/01 05:40:37;;;;;;;;;;;;;;;14.64;100.00;100280.50;10370721;28;19926;-66
2022/06/01 05:45:42;;;;;;;;;;;;;;;14.74;100.00;100284.56;10453208;28;19936;-64
2022/06/01 05:50:45;;;;;;;;;;;;;;;14.87;100.00;100280.72;10583523;28;19934;-67
2022/06/01 05:55:48;;;;;;;;;;;;;;;15.03;100.00;100284.56;10586773;28;19924;-67
2022/06/01 06:00:53;;;;;;;;;;;;;;;15.23;100.00;100287.47;10591944;28;20400;-66
2022/06/01 06:06:15;;;;;;;;;;;;;;;15.23;100.00;100269.16;10591633;28;20007;-68
2022/06/01 06:11:19;;;;;;;;;;;;;;;15.04;100.00;100295.00;10591243;28;20344;-64
2022/06/01 06:16:23;;;;;;;;;;;;;;;14.92;100.00;100279.69;10591257;28;19924;-70
2022/06/01 06:21:28;;;;;;;;;;;;;;;14.97;100.00;100280.41;10433216;28;19932;-67
2022/06/01 06:26:31;;;;;;;;;;;;;;;15.00;100.00;100266.38;10376277;28;20266;-67
2022/06/01 06:31:36;;;;;;;;;;;;;;;14.99;100.00;100328.28;10374631;28;19932;-66
2022/06/01 06:36:39;;;;;;;;;;;;;;;14.95;100.00;100312.69;10375786;28;19936;-66
2022/06/01 06:41:42;;;;;;;;;;;;;;;14.91;100.00;100327.59;10375310;28;19925;-67
2022/06/01 06:46:47;;;;;;;;;;;;;;;15.02;100.00;100327.31;10375856;28;19925;-70
2022/06/01 06:51:50;;;;;;;;;;;;;;;15.12;100.00;100309.63;10375101;28;19937;-65
2022/06/01 06:56:53;;;;;;;;;;;;;;;15.14;100.00;100305.16;10374797;28;19952;-66
2022/06/01 07:01:57;;;;;;;;;;;;;;;15.24;100.00;100278.72;10374787;28;19963;-64
2022/06/01 07:07:01;;;;;;;;;;;;;;;15.21;100.00;100283.19;10375069;28;19929;-67
2022/06/01 07:12:05;;;;;;;;;;;;;;;15.17;100.00;100332.09;10374963;28;19936;-66
2022/06/01 07:17:09;;;;;;;;;;;;;;;15.16;100.00;100332.13;10375096;28;20334;-65
2022/06/01 07:22:12;;;;;;;;;;;;;;;15.24;100.00;100336.22;10374381;28;19952;-68
2022/06/01 07:27:15;;;;;;;;;;;;;;;15.15;100.00;100347.00;10374449;28;19932;-67
2022/06/01 07:32:20;;;;;;;;;;;;;;;15.20;100.00;100325.94;10373675;28;19926;-67
2022/06/01 07:48:06;;;;;;;;;;;;;;;15.62;100.00;100301.09;10374330;28;19929;-65
2022/06/01 07:53:29;;;;;;;;;;;;;;;15.79;100.00;100315.38;10373083;28;19926;-66
2022/06/01 07:58:32;;;;;;;;;;;;;;;15.73;100.00;100328.66;10374606;28;19926;-68
2022/06/01 08:03:37;;;;;;;;;;;;;;;15.74;100.00;100338.22;10372686;28;20339;-68
2022/06/01 08:08:40;;;;;;;;;;;;;;;15.72;100.00;100323.47;10373125;28;19935;-68
2022/06/01 08:13:43;;;;;;;;;;;;;;;15.85;100.00;100312.56;10372711;28;20266;-66
2022/06/01 08:18:47;;;;;;;;;;;;;;;15.92;100.00;100311.47;10371988;28;19932;-68
2022/06/01 08:23:50;;;;;;;;;;;;;;;15.87;100.00;100317.75;10372427;28;19936;-68
2022/06/01 08:28:54;;;;;;;;;;;;;;;15.88;100.00;100302.00;10372236;28;19936;-68
2022/06/01 08:33:58;;;;;;;;;;;;;;;16.01;100.00;100298.03;10372084;28;19926;-69
2022/06/01 08:39:01;;;;;;;;;;;;;;;16.32;100.00;100290.03;10372093;28;19926;-64
2022/06/01 08:44:06;;;;;;;;;;;;;;;16.69;100.00;100289.59;10371803;28;19926;-70
2022/06/01 08:49:15;;;;;;;;;;;;;;;16.57;100.00;100276.94;10373056;28;19940;-63
2022/06/01 08:54:18;;;;;;;;;;;;;;;16.40;100.00;100269.66;10371772;28;20012;-61
2022/06/01 08:59:26;;;;;;;;;;;;;;;16.23;100.00;100290.34;10371476;28;19986;-65
2022/06/01 09:04:35;;;;;;;;;;;;;;;16.05;100.00;100293.56;10370990;28;19926;-64
2022/06/01 09:09:46;;;;;;;;;;;;;;;16.20;100.00;100280.81;10371221;28;20304;-61
2022/06/01 09:14:52;;;;;;;;;;;;;;;16.64;100.00;100292.41;10371100;28;19925;-62
2022/06/01 09:25:20;;;;;;;;;;;;;;;16.94;100.00;100288.69;10371063;28;19932;-62
2022/06/01 09:30:25;;;;;;;;;;;;;;;17.17;100.00;100287.81;10374578;28;19925;-66
2022/06/01 09:35:30;;;;;;;;;;;;;;;17.09;100.00;100285.47;10377905;28;19953;-68
2022/06/01 09:40:35;;;;;;;;;;;;;;;17.12;100.00;100287.97;10377899;28;19926;-67
2022/06/01 09:45:46;;;;;;;;;;;;;;;17.05;100.00;100285.66;10377549;28;19925;-66
2022/06/01 09:51:00;;;;;;;;;;;;;;;17.14;100.00;100299.28;10377402;28;20014;-66
2022/06/01 09:56:04;;;;;;;;;;;;;;;17.39;100.00;100295.72;10377576;28;19940;-68
2022/06/01 10:06:48;;;;;;;;;;;;;;;17.35;100.00;100305.47;10376832;28;20204;-66
2022/06/01 10:11:54;;;;;;;;;;;;;;;17.59;100.00;100309.78;10376690;28;19936;-70
2022/06/01 10:17:06;;;;;;;;;;;;;;;18.55;100.00;100306.69;10377479;28;20320;-69
2022/06/01 10:22:14;;;;;;;;;;;;;;;19.61;91.03;100300.91;10376280;28;19937;-70
2022/06/01 10:27:21;;;;;;;;;;;;;;;20.33;89.16;100299.06;10376480;28;20380;-69
2022/06/01 10:32:28;;;;;;;;;;;;;;;20.95;84.83;100293.19;10376461;28;19925;-70
2022/06/01 10:37:37;;;;;;;;;;;;;;;20.87;84.55;100284.81;10375337;28;19936;-71
2022/06/01 10:48:08;;;;;;;;;;;;;;;20.81;79.93;100293.06;10375170;28;19978;-66
2022/06/01 10:53:18;;;;;;;;;;;;;;;21.81;76.15;100277.84;10370646;28;20232;-66
2022/06/01 10:58:23;;;;;;;;;;;;;;;21.72;74.27;100276.56;10375439;28;19929;-70
2022/06/01 11:03:35;;;;;;;;;;;;;;;21.99;73.47;100280.28;10374603;28;19951;-68
2022/06/01 11:08:45;;;;;;;;;;;;;;;20.90;77.94;100284.66;10375178;28;19926;-67
2022/06/01 11:14:10;;;;;;;;;;;;;;;22.23;74.85;100283.25;10375030;28;19926;-67
2022/06/01 11:19:20;;;;;;;;;;;;;;;23.06;70.27;100280.81;10378696;28;19947;-68
2022/06/01 11:24:41;;;;;;;;;;;;;;;23.32;68.80;100273.00;10374739;28;19930;-65
2022/06/01 11:29:53;;;;;;;;;;;;;;;23.37;67.74;100264.72;10374567;28;19940;-70
2022/06/01 11:35:00;;;;;;;;;;;;;;;24.20;63.54;100241.50;10374217;28;19943;-67
2022/06/01 11:40:08;;;;;;;;;;;;;;;24.86;63.22;100230.72;10374288;28;19929;-66
2022/06/01 11:45:14;;;;;;;;;;;;;;;24.98;63.03;100237.81;10373477;28;19925;-73
2022/06/01 11:50:18;;;;;;;;;;;;;;;23.56;62.78;100239.63;10373819;28;20279;-68
2022/06/01 11:55:41;;;;;;;;;;;;;;;23.22;64.43;100240.06;10372013;28;19982;-68
2022/06/01 12:00:51;;;;;;;;;;;;;;;22.18;67.02;100241.25;10373270;28;19945;-65
2022/06/01 12:06:00;;;;;;;;;;;;;;;21.61;69.94;100241.94;10373148;28;20269;-66
2022/06/01 12:11:06;;;;;;;;;;;;;;;20.99;73.25;100244.59;10373326;28;20016;-69
2022/06/01 12:16:19;;;;;;;;;;;;;;;20.33;77.46;100263.03;10372746;28;19957;-68
2022/06/01 12:21:29;;;;;;;;;;;;;;;18.75;100.00;100272.47;10373091;28;19926;-66
2022/06/01 12:32:10;;;;;;;;;;;;;;;19.19;100.00;100273.97;10372831;28;19926;-69
2022/06/01 12:37:18;;;;;;;;;;;;;;;20.28;100.00;100270.31;10372119;28;20019;-66
2022/06/01 12:42:31;;;;;;;;;;;;;;;21.10;100.00;100258.06;10372119;28;19939;-69
2022/06/01 12:47:36;;;;;;;;;;;;;;;21.66;100.00;100246.03;10331768;28;19941;-67
2022/06/01 12:52:40;;;;;;;;;;;;;;;20.26;100.00;100251.09;10349980;28;19926;-70
2022/06/01 12:57:50;;;;;;;;;;;;;;;19.20;100.00;100270.38;10371725;28;19926;-69
2022/06/01 13:02:54;;;;;;;;;;;;;;;18.91;100.00;100263.84;10370306;28;19925;-67
2022/06/01 13:07:58;;;;;;;;;;;;;;;19.00;100.00;100259.94;10371081;28;19925;-69
2022/06/01 13:13:03;;;;;;;;;;;;;;;19.19;100.00;100251.09;10371122;28;19925;-66
2022/06/01 13:18:08;;;;;;;;;;;;;;;19.35;100.00;100243.38;10371116;28;19936;-74
2022/06/01 13:23:18;;;;;;;;;;;;;;;19.20;100.00;100246.69;10362969;28;19926;-66
2022/06/01 13:28:22;;;;;;;;;;;;;;;19.00;100.00;100244.16;10370831;28;20021;-69
2022/06/01 13:33:30;;;;;;;;;;;;;;;19.37;100.00;100236.25;10370744;28;19925;-65
2022/06/01 13:38:35;;;;;;;;;;;;;;;20.80;100.00;100225.38;10370419;28;19935;-69
2022/06/01 13:43:44;;;;;;;;;;;;;;;21.39;100.00;100228.25;10369827;28;20306;-69
2022/06/01 13:48:52;;;;;;;;;;;;;;;20.83;100.00;100226.06;10370550;28;19925;-67
2022/06/01 13:53:55;;;;;;;;;;;;;;;21.51;100.00;100230.22;10370013;28;20338;-65
2022/06/01 13:59:02;;;;;;;;;;;;;;;22.52;68.75;100218.91;10369784;28;20382;-67
2022/06/01 14:04:12;;;;;;;;;;;;;;;22.93;53.82;100223.34;10369266;28;20344;-69
2022/06/01 14:09:15;;;;;;;;;;;;;;;22.56;53.53;100225.72;10370154;28;20352;-68
2022/06/01 14:14:23;;;;;;;;;;;;;;;23.23;50.09;100214.44;10369238;28;19936;-65
2022/06/01 14:19:26;;;;;;;;;;;;;;;23.46;50.01;100219.09;10375588;28;20380;-66
2022/06/01 14:28:28;;;;;;;;;;;;;;;23.44;47.61;100205.97;10376097;28;20358;-65
2022/06/01 14:29:53;;;;;;;;;;;;;;;23.78;46.22;100226.63;10376599;28;19926;-66
2022/06/01 14:34:57;;;;;;;;;;;;;;;23.62;45.96;100236.56;10375764;28;19925;-67
2022/06/01 14:40:00;;;;;;;;;;;;;;;23.41;45.97;100229.16;10376016;28;19989;-67
2022/06/01 14:45:04;;;;;;;;;;;;;;;23.51;45.35;100232.91;10374564;28;19935;-64
2022/06/01 14:50:08;;;;;;;;;;;;;;;23.22;42.40;100213.56;10374185;28;19935;-66
2022/06/01 14:55:11;;;;;;;;;;;;;;;23.46;42.56;100221.75;10375393;28;20212;-67
2022/06/01 15:00:16;;;;;;;;;;;;;;;23.54;41.80;100230.06;10374745;28;19926;-66
2022/06/01 15:05:20;;;;;;;;;;;;;;;23.39;43.38;100229.25;10375043;28;20011;-65
2022/06/01 15:10:23;;;;;;;;;;;;;;;23.44;40.70;100224.50;10374828;28;19925;-65
2022/06/01 15:15:27;;;;;;;;;;;;;;;23.40;41.48;100238.06;10374741;28;20258;-64
2022/06/01 15:20:38;;;;;;;;;;;;;;;22.78;42.11;100247.28;10374762;28;20410;-62
2022/06/01 15:25:44;;;;;;;;;;;;;;;22.15;41.75;100244.06;10374763;28;19926;-65
2022/06/01 15:41:30;;;;;;;;;;;;;;;21.33;44.44;100273.50;10373285;28;20357;-63
2022/06/01 15:46:36;;;;;;;;;;;;;;;21.41;45.04;100271.28;10372843;28;19971;-61
2022/06/01 15:51:40;;;;;;;;;;;;;;;21.76;44.62;100270.16;10373207;28;19926;-62
2022/06/01 15:56:44;;;;;;;;;;;;;;;21.87;44.14;100269.56;10373383;28;20234;-66
2022/06/01 16:01:48;;;;;;;;;;;;;;;21.84;44.17;100288.22;10372753;28;19975;-64
2022/06/01 16:06:52;;;;;;;;;;;;;;;21.95;41.37;100286.66;10372716;28;19926;-64
2022/06/01 16:11:55;;;;;;;;;;;;;;;21.70;41.07;100299.56;10372789;28;19937;-63
2022/06/01 16:16:59;;;;;;;;;;;;;;;21.64;40.09;100306.03;10372872;28;19925;-64
2022/06/01 16:22:02;;;;;;;;;;;;;;;21.47;41.43;100314.06;10372443;28;19933;-62
2022/06/01 16:27:06;;;;;;;;;;;;;;;21.55;41.88;100317.09;10372330;28;20419;-66
2022/06/01 16:32:15;;;;;;;;;;;;;;;21.32;41.90;100311.41;10372466;28;19926;-63
2022/06/01 16:37:18;;;;;;;;;;;;;;;21.19;42.66;100318.28;10372525;28;19925;-62
2022/06/01 16:42:21;;;;;;;;;;;;;;;21.23;43.31;100325.09;10371455;28;19926;-62
2022/06/01 16:47:26;;;;;;;;;;;;;;;21.03;44.13;100325.31;10372110;28;19926;-64
2022/06/01 16:52:29;;;;;;;;;;;;;;;20.91;44.86;100310.97;10371331;28;19926;-63
2022/06/01 16:57:32;;;;;;;;;;;;;;;20.91;45.02;100323.31;10370807;28;20369;-63
2022/06/01 17:02:36;;;;;;;;;;;;;;;20.85;45.95;100327.09;10371203;28;19932;-61
2022/06/01 17:07:41;;;;;;;;;;;;;;;20.69;47.18;100327.06;10371446;28;20281;-61
2022/06/01 17:12:44;;;;;;;;;;;;;;;20.49;48.44;100344.84;10371304;28;19925;-63
2022/06/01 17:17:51;;;;;;;;;;;;;;;20.50;48.10;100354.47;10369450;28;19926;-63
2022/06/01 17:22:54;;;;;;;;;;;;;;;20.42;47.95;100341.66;10369320;28;19926;-64
2022/06/01 17:27:58;;;;;;;;;;;;;;;20.37;49.01;100350.72;10369508;28;20377;-63
2022/06/01 17:33:03;;;;;;;;;;;;;;;20.22;49.60;100348.88;10369142;28;19930;-64
2022/06/01 17:38:08;;;;;;;;;;;;;;;20.09;49.90;100361.75;10368321;28;20394;-63
2022/06/01 17:43:11;;;;;;;;;;;;;;;20.02;49.94;100357.72;10368404;28;19925;-62
2022/06/01 17:48:23;;;;;;;;;;;;;;;19.93;50.35;100359.94;10368388;28;19941;-63
2022/06/01 17:53:27;;;;;;;;;;;;;;;19.84;51.01;100361.25;10373397;28;19933;-63
2022/06/01 17:58:30;;;;;;;;;;;;;;;19.61;52.83;100356.22;10377066;28;19926;-68
2022/06/01 18:03:35;;;;;;;;;;;;;;;19.63;52.44;100359.63;10377267;28;19935;-66
2022/06/01 18:08:39;;;;;;;;;;;;;;;19.47;52.80;100353.34;10376631;28;19925;-67
2022/06/01 18:13:42;;;;;;;;;;;;;;;19.40;53.91;100360.69;10377359;28;20331;-65
2022/06/01 18:18:47;;;;;;;;;;;;;;;19.25;55.43;100361.38;10376786;28;20013;-64
2022/06/01 18:23:51;;;;;;;;;;;;;;;18.98;59.08;100365.22;10376619;28;20245;-68
2022/06/01 18:28:54;;;;;;;;;;;;;;;18.68;61.37;100370.97;10376869;28;19944;-65
2022/06/01 18:33:59;;;;;;;;;;;;;;;18.34;66.52;100366.25;10345930;28;20384;-70
2022/06/01 18:39:02;;;;;;;;;;;;;;;18.05;67.60;100372.69;10364098;28;19948;-61
2022/06/01 18:44:07;;;;;;;;;;;;;;;17.80;69.54;100382.47;10355177;28;19936;-65
2022/06/01 18:49:12;;;;;;;;;;;;;;;17.47;72.21;100402.13;10335235;28;20354;-69
2022/06/01 18:54:16;;;;;;;;;;;;;;;17.27;75.85;100404.59;10335927;28;20021;-69
2022/06/01 19:04:42;;;;;;;;;;;;;;;16.86;77.63;100420.97;10374817;28;19926;-66
2022/06/01 19:09:45;;;;;;;;;;;;;;;16.74;78.43;100430.09;10374900;28;19925;-71
2022/06/01 19:14:48;;;;;;;;;;;;;;;16.58;80.84;100433.28;10374947;28;19941;-69
2022/06/01 19:19:54;;;;;;;;;;;;;;;16.39;82.50;100434.75;10374759;28;19963;-70
2022/06/01 19:24:58;;;;;;;;;;;;;;;16.23;82.49;100441.38;10374928;28;19930;-68
2022/06/01 19:30:02;;;;;;;;;;;;;;;16.09;85.70;100441.81;10374389;28;20016;-68
2022/06/01 19:35:07;;;;;;;;;;;;;;;15.92;86.59;100441.47;10374388;28;20008;-66
2022/06/01 19:45:32;;;;;;;;;;;;;;;15.69;89.80;100433.47;10374273;28;19925;-63
2022/06/01 19:50:41;;;;;;;;;;;;;;;15.55;91.32;100436.47;10374142;28;19934;-64
2022/06/01 19:55:44;;;;;;;;;;;;;;;15.39;93.84;100432.59;10373803;28;19935;-64
2022/06/01 20:00:47;;;;;;;;;;;;;;;15.30;92.87;100432.84;10373555;28;20152;-66
2022/06/01 20:05:53;;;;;;;;;;;;;;;15.16;92.72;100439.31;10373541;28;20227;-62
2022/06/01 20:13:13;;;;;;;;;;;;;;;15.16;92.28;100440.19;10373287;28;19926;-66
2022/06/01 20:16:21;;;;;;;;;;;;;;;14.96;95.10;100439.88;10371643;28;20412;-64
2022/06/01 20:21:25;;;;;;;;;;;;;;;15.05;96.76;100456.16;10373003;28;19926;-65
2022/06/01 20:26:29;;;;;;;;;;;;;;;14.81;96.13;100440.25;10372912;28;19970;-64
2022/06/01 20:31:32;;;;;;;;;;;;;;;14.70;98.04;100453.59;10372829;28;19936;-63
2022/06/01 20:36:41;;;;;;;;;;;;;;;14.78;98.84;100450.81;10372468;28;19989;-65
2022/06/01 20:41:44;;;;;;;;;;;;;;;14.67;100.00;100453.69;10372574;28;19926;-64
2022/06/01 20:46:48;;;;;;;;;;;;;;;14.76;100.00;100450.84;10372480;28;19926;-66
2022/06/01 20:51:52;;;;;;;;;;;;;;;14.65;100.00;100455.47;10372043;28;20365;-67
2022/06/01 20:56:55;;;;;;;;;;;;;;;14.67;100.00;100455.44;10371833;28;19925;-63
2022/06/01 21:01:58;;;;;;;;;;;;;;;14.42;100.00;100460.44;10371502;28;19952;-63
2022/06/01 21:07:04;;;;;;;;;;;;;;;14.43;100.00;100456.03;10371773;28;20342;-65
2022/06/01 21:12:19;;;;;;;;;;;;;;;14.40;100.00;100453.50;10371756;28;20016;-67
2022/06/01 21:17:25;;;;;;;;;;;;;;;14.45;100.00;100469.91;10371468;28;19936;-70
2022/06/01 21:22:29;;;;;;;;;;;;;;;14.37;100.00;100471.88;10371964;28;20232;-67
2022/06/01 21:27:32;;;;;;;;;;;;;;;14.22;100.00;100469.59;10376786;28;19936;-68
2022/06/01 21:32:35;;;;;;;;;;;;;;;14.24;100.00;100475.59;10378702;28;19925;-67
2022/06/01 21:37:40;;;;;;;;;;;;;;;14.14;100.00;100468.88;10378310;28;19940;-69
2022/06/01 21:42:43;;;;;;;;;;;;;;;14.17;100.00;100461.84;10378200;28;19926;-66
2022/06/01 21:47:46;;;;;;;;;;;;;;;14.07;100.00;100452.50;10377987;28;19926;-67
2022/06/01 21:52:51;;;;;;;;;;;;;;;14.03;100.00;100456.06;10377958;28;20005;-67
2022/06/01 21:57:54;;;;;;;;;;;;;;;13.80;100.00;100467.00;10377922;28;19926;-68
2022/06/01 22:02:59;;;;;;;;;;;;;;;13.75;100.00;100473.25;10377012;28;19936;-69
2022/06/01 22:08:03;;;;;;;;;;;;;;;13.84;100.00;100470.41;10377361;28;19925;-68
2022/06/01 22:13:06;;;;;;;;;;;;;;;13.90;100.00;100484.22;10377439;28;19932;-68
2022/06/01 22:18:10;;;;;;;;;;;;;;;13.98;100.00;100481.41;10377164;28;19926;-66
2022/06/01 22:23:15;;;;;;;;;;;;;;;14.06;100.00;100486.47;10376375;28;20232;-65
2022/06/01 22:28:18;;;;;;;;;;;;;;;14.09;100.00;100496.84;10376849;28;19964;-67
2022/06/01 22:33:22;;;;;;;;;;;;;;;14.11;100.00;100495.94;10376916;28;19925;-64
2022/06/01 22:38:26;;;;;;;;;;;;;;;14.24;100.00;100491.28;10375585;28;20331;-64
2022/06/01 22:43:30;;;;;;;;;;;;;;;14.17;100.00;100463.63;10375995;28;19939;-65
2022/06/01 22:48:33;;;;;;;;;;;;;;;14.18;100.00;100444.44;10376217;28;19926;-64
2022/06/01 22:53:38;;;;;;;;;;;;;;;14.11;100.00;100435.91;10376283;28;19939;-66
2022/06/01 22:58:42;;;;;;;;;;;;;;;13.98;100.00;100438.81;10376366;28;19925;-67
2022/06/01 23:03:45;;;;;;;;;;;;;;;14.06;100.00;100442.13;10375536;28;19936;-64
2022/06/01 23:08:49;;;;;;;;;;;;;;;14.13;100.00;100468.06;10375728;28;19925;-65
2022/06/01 23:13:52;;;;;;;;;;;;;;;14.17;100.00;100481.91;10375715;28;19932;-64
2022/06/01 23:18:55;;;;;;;;;;;;;;;14.39;100.00;100468.31;10375159;28;20350;-66
2022/06/01 23:24:00;;;;;;;;;;;;;;;14.38;100.00;100460.50;10374945;28;19932;-67
2022/06/01 23:29:07;;;;;;;;;;;;;;;14.40;100.00;100459.59;10375079;28;20320;-66
2022/06/01 23:34:18;;;;;;;;;;;;;;;14.32;100.00;100482.44;10374898;28;19929;-67
2022/06/01 23:39:28;;;;;;;;;;;;;;;14.38;100.00;100497.06;10374866;28;19926;-66
2022/06/01 23:44:38;;;;;;;;;;;;;;;14.54;100.00;100508.88;10374260;28;19925;-70
2022/06/01 23:49:58;;;;;;;;;;;;;;;14.50;100.00;100513.31;10374255;28;20361;-66
2022/06/01 23:55:08;;;;;;;;;;;;;;;14.57;100.00;100504.44;10374191;28;19925;-62
